Time,TemperatureF,DewpointF,PressureIn,WindDirection,WindDirectionDegrees,WindSpeedMPH,WindSpeedGustMPH,Humidity,HourlyPrecipIn,Conditions,Clouds,dailyrainin,SolarRadiationWatts/m^2,SoftwareType,DateUTC
2013-04-13 00:02:00,48.6,48.4,29.78,North,0,4.0,9.0,40,0.00,,,0.47,0.0,meteohub,2013-04-13 04:02:00,
2013-04-13 00:07:00,48.7,48.4,29.78,NW,317,2.0,9.0,40,0.00,,,0.00,0.0,meteohub,2013-04-13 04:07:00,
2013-04-13 00:17:00,48.6,48.4,29.78,NNW,338,7.0,9.0,40,0.00,,,0.00,0.0,meteohub,2013-04-13 04:17:00,
2013-04-13 00:22:00,48.6,48.4,29.78,NNW,332,2.0,9.0,40,0.00,,,0.00,0.0,meteohub,2013-04-13 04:22:00,
2013-04-13 00:27:00,48.4,48.4,29.79,WNW,299,8.0,9.0,40,0.00,,,0.00,0.0,meteohub,2013-04-13 04:27:00,
2013-04-13 00:32:00,48.6,48.4,29.79,NNW,338,8.0,12.0,40,0.00,,,0.00,0.0,meteohub,2013-04-13 04:32:00,
2013-04-13 00:42:00,48.6,48.4,29.79,North,355,6.0,12.0,40,0.00,,,0.00,0.0,meteohub,2013-04-13 04:42:00,
2013-04-13 00:47:00,48.6,48.4,29.79,NNW,348,3.0,12.0,40,0.00,,,0.00,0.0,meteohub,2013-04-13 04:47:00,
2013-04-13 00:52:00,48.4,48.4,29.79,NNW,340,4.0,12.0,40,0.00,,,0.00,0.0,meteohub,2013-04-13 04:52:00,
2013-04-13 00:57:00,48.4,48.4,29.79,NW,304,5.0,10.0,40,0.00,,,0.00,0.0,meteohub,2013-04-13 04:57:00,
2013-04-13 01:02:00,48.4,48.4,29.79,NW,325,5.0,11.0,40,0.00,,,0.00,0.0,meteohub,2013-04-13 05:02:00,
2013-04-13 01:07:00,48.2,48.4,29.80,NW,311,1.0,11.0,40,0.00,,,0.00,0.0,meteohub,2013-04-13 05:07:00,
2013-04-13 01:12:00,48.0,47.7,29.80,NW,312,3.0,11.0,39,0.00,,,0.00,0.0,meteohub,2013-04-13 05:12:00,
2013-04-13 01:17:00,48.0,47.7,29.80,WNW,300,4.0,10.0,39,0.00,,,0.00,0.0,meteohub,2013-04-13 05:17:00,
2013-04-13 01:22:00,47.8,48.0,29.80,WNW,300,5.0,10.0,40,0.00,,,0.00,0.0,meteohub,2013-04-13 05:22:00,
2013-04-13 01:32:00,47.8,48.2,29.80,West,261,5.0,9.0,40,0.00,,,0.00,0.0,meteohub,2013-04-13 05:32:00,
2013-04-13 01:37:00,47.7,47.7,29.80,NW,314,3.0,9.0,39,0.00,,,0.00,0.0,meteohub,2013-04-13 05:37:00,
2013-04-13 01:42:00,47.7,47.7,29.80,NNW,334,5.0,9.0,39,0.00,,,0.00,0.0,meteohub,2013-04-13 05:42:00,
2013-04-13 01:52:00,47.7,47.7,29.80,NW,311,2.0,9.0,39,0.00,,,0.00,0.0,meteohub,2013-04-13 05:52:00,
2013-04-13 01:57:00,47.7,47.7,29.80,NNW,346,7.0,8.0,39,0.00,,,0.00,0.0,meteohub,2013-04-13 05:57:00,
2013-04-13 02:02:00,47.7,47.7,29.81,West,280,2.0,8.0,39,0.00,,,0.00,0.0,meteohub,2013-04-13 06:02:00,
2013-04-13 02:07:00,47.7,47.7,29.80,NNW,339,0.0,9.0,39,0.00,,,0.00,0.0,meteohub,2013-04-13 06:07:00,
2013-04-13 02:12:00,47.7,47.7,29.80,West,280,3.0,9.0,39,0.00,,,0.00,0.0,meteohub,2013-04-13 06:12:00,
2013-04-13 02:17:00,47.7,47.7,29.80,WSW,256,2.0,9.0,39,0.00,,,0.00,0.0,meteohub,2013-04-13 06:17:00,
2013-04-13 02:22:00,47.5,47.7,29.80,NNW,329,1.0,9.0,39,0.00,,,0.00,0.0,meteohub,2013-04-13 06:22:00,
2013-04-13 02:35:00,46.6,47.7,29.80,SSW,212,0.0,6.0,39,0.00,,,0.00,0.0,meteohub,2013-04-13 06:35:00,
2013-04-13 02:42:00,45.5,47.7,29.80,WSW,257,3.0,6.0,39,0.00,,,0.00,0.0,meteohub,2013-04-13 06:42:00,
2013-04-13 02:47:00,45.3,47.7,29.80,WSW,248,0.0,6.0,39,0.00,,,0.00,0.0,meteohub,2013-04-13 06:47:00,
2013-04-13 02:52:00,44.6,47.7,29.80,West,275,1.0,6.0,39,0.00,,,0.00,0.0,meteohub,2013-04-13 06:52:00,
2013-04-13 02:57:00,44.2,47.7,29.80,West,275,0.0,4.0,39,0.00,,,0.00,0.0,meteohub,2013-04-13 06:57:00,
2013-04-13 03:10:00,43.7,47.7,29.80,West,275,0.0,1.0,39,0.00,,,0.00,0.0,meteohub,2013-04-13 07:10:00,
2013-04-13 03:20:00,44.1,47.7,29.80,NW,326,0.0,1.0,39,0.00,,,0.00,0.0,meteohub,2013-04-13 07:20:00,
2013-04-13 03:27:00,44.4,47.7,29.80,NW,326,1.0,2.0,39,0.00,,,0.00,0.0,meteohub,2013-04-13 07:27:00,
2013-04-13 03:33:00,44.2,47.7,29.80,NW,326,0.0,2.0,39,0.00,,,0.00,0.0,meteohub,2013-04-13 07:33:00,
2013-04-13 03:42:00,43.9,47.7,29.80,NW,326,0.0,2.0,39,0.00,,,0.00,0.0,meteohub,2013-04-13 07:42:00,
2013-04-13 03:47:00,43.9,47.7,29.80,NW,326,0.0,2.0,39,0.00,,,0.00,0.0,meteohub,2013-04-13 07:47:00,
2013-04-13 03:52:00,43.3,46.9,29.80,NW,326,2.0,2.0,38,0.00,,,0.00,0.0,meteohub,2013-04-13 07:52:00,
2013-04-13 03:57:00,43.3,46.9,29.80,NNW,348,0.0,3.0,38,0.00,,,0.00,0.0,meteohub,2013-04-13 07:57:00,
2013-04-13 04:05:00,43.3,46.9,29.81,NNW,347,0.0,3.0,38,0.00,,,0.00,0.0,meteohub,2013-04-13 08:05:00,
2013-04-13 04:12:00,43.2,46.9,29.81,NW,319,0.0,3.0,38,0.00,,,0.00,0.0,meteohub,2013-04-13 08:12:00,
2013-04-13 04:17:00,42.8,46.9,29.81,NW,319,0.0,3.0,38,0.00,,,0.00,0.0,meteohub,2013-04-13 08:17:00,
2013-04-13 04:27:00,42.4,46.9,29.81,NW,319,0.0,2.0,38,0.00,,,0.00,0.0,meteohub,2013-04-13 08:27:00,
2013-04-13 04:37:00,42.6,46.9,29.80,NW,307,0.0,2.0,38,0.00,,,0.00,0.0,meteohub,2013-04-13 08:37:00,
2013-04-13 04:42:00,42.4,46.9,29.81,NW,308,0.0,2.0,38,0.00,,,0.00,0.0,meteohub,2013-04-13 08:42:00,
2013-04-13 04:47:00,42.3,46.9,29.80,NW,308,0.0,2.0,38,0.00,,,0.00,0.0,meteohub,2013-04-13 08:47:00,
2013-04-13 04:57:00,42.1,46.9,29.81,NW,308,0.0,2.0,38,0.00,,,0.00,0.0,meteohub,2013-04-13 08:57:00,
2013-04-13 05:07:00,42.6,46.9,29.81,North,355,1.0,5.0,38,0.00,,,0.00,0.0,meteohub,2013-04-13 09:07:00,
2013-04-13 05:12:00,42.6,46.9,29.81,North,355,0.0,5.0,38,0.00,,,0.00,0.0,meteohub,2013-04-13 09:12:00,
2013-04-13 05:17:00,42.4,46.9,29.81,NW,326,0.0,5.0,38,0.00,,,0.00,0.0,meteohub,2013-04-13 09:17:00,
2013-04-13 05:22:00,42.1,46.9,29.81,NW,326,1.0,2.0,38,0.00,,,0.00,0.0,meteohub,2013-04-13 09:22:00,
2013-04-13 05:27:00,41.7,46.9,29.82,NW,326,0.0,2.0,38,0.00,,,0.00,0.0,meteohub,2013-04-13 09:27:00,
2013-04-13 05:32:00,41.5,46.9,29.81,North,351,0.0,2.0,38,0.00,,,0.00,0.0,meteohub,2013-04-13 09:32:00,
2013-04-13 05:42:00,41.7,46.9,29.81,NNW,327,0.0,4.0,38,0.00,,,0.00,0.0,meteohub,2013-04-13 09:42:00,
2013-04-13 05:47:00,41.7,46.9,29.81,NNW,327,0.0,4.0,38,0.00,,,0.00,0.0,meteohub,2013-04-13 09:47:00,
2013-04-13 05:57:00,41.2,46.9,29.82,NW,325,0.0,3.0,38,0.00,,,0.00,0.0,meteohub,2013-04-13 09:57:00,
2013-04-13 06:02:00,40.8,46.8,29.82,NW,325,2.0,3.0,38,0.00,,,0.00,0.0,meteohub,2013-04-13 10:02:00,
2013-04-13 06:12:00,41.4,46.8,29.83,NNW,344,0.0,4.0,38,0.00,,,0.00,0.0,meteohub,2013-04-13 10:12:00,
2013-04-13 06:17:00,40.8,46.8,29.83,WNW,294,0.0,4.0,38,0.00,,,0.00,0.0,meteohub,2013-04-13 10:17:00,
2013-04-13 06:22:00,40.8,46.8,29.82,WNW,294,2.0,4.0,38,0.00,,,0.00,0.0,meteohub,2013-04-13 10:22:00,
2013-04-13 06:27:00,40.8,46.8,29.82,West,275,0.0,3.0,38,0.00,,,0.00,0.0,meteohub,2013-04-13 10:27:00,
2013-04-13 06:37:00,40.6,46.8,29.83,NNW,335,0.0,4.0,38,0.00,,,0.00,0.0,meteohub,2013-04-13 10:37:00,
2013-04-13 06:42:00,40.6,46.0,29.83,NW,317,1.0,4.0,37,0.00,,,0.00,0.0,meteohub,2013-04-13 10:42:00,
2013-04-13 06:52:00,40.3,46.0,29.83,WNW,297,0.0,4.0,37,0.00,,,0.00,0.0,meteohub,2013-04-13 10:52:00,
2013-04-13 07:02:00,39.7,46.0,29.84,WNW,297,0.0,4.0,37,0.00,,,0.00,5.0,meteohub,2013-04-13 11:02:00,
2013-04-13 07:07:00,39.6,46.0,29.84,WNW,297,0.0,1.0,37,0.00,,,0.00,7.0,meteohub,2013-04-13 11:07:00,
2013-04-13 07:17:00,39.6,46.0,29.85,WNW,283,0.0,4.0,37,0.00,,,0.00,12.0,meteohub,2013-04-13 11:17:00,
2013-04-13 07:22:00,39.9,46.0,29.86,West,274,1.0,6.0,37,0.00,,,0.00,14.0,meteohub,2013-04-13 11:22:00,
2013-04-13 07:32:00,42.1,46.0,29.86,WNW,300,1.0,10.0,37,0.00,,,0.00,19.0,meteohub,2013-04-13 11:32:00,
2013-04-13 07:37:00,43.2,46.0,29.86,NW,319,3.0,10.0,37,0.00,,,0.00,35.0,meteohub,2013-04-13 11:37:00,
2013-04-13 07:42:00,44.1,46.0,29.86,West,279,3.0,10.0,37,0.00,,,0.00,49.0,meteohub,2013-04-13 11:42:00,
2013-04-13 07:47:00,44.4,46.0,29.86,NW,309,2.0,9.0,37,0.00,,,0.00,65.0,meteohub,2013-04-13 11:47:00,
2013-04-13 07:52:00,45.1,46.0,29.87,NW,304,5.0,9.0,37,0.00,,,0.00,81.0,meteohub,2013-04-13 11:52:00,
2013-04-13 08:02:00,46.6,46.0,29.87,West,276,4.0,9.0,37,0.00,,,0.00,121.0,meteohub,2013-04-13 12:02:00,
2013-04-13 08:07:00,46.8,46.0,29.88,WNW,284,2.0,9.0,37,0.00,,,0.00,142.0,meteohub,2013-04-13 12:07:00,
2013-04-13 08:15:00,46.9,46.0,29.88,NW,314,4.0,8.0,37,0.00,,,0.00,160.0,meteohub,2013-04-13 12:15:00,
2013-04-13 08:22:00,47.7,46.0,29.88,North,355,1.0,9.0,37,0.00,,,0.00,204.0,meteohub,2013-04-13 12:22:00,
2013-04-13 08:27:00,47.8,46.0,29.88,NNW,339,2.0,9.0,37,0.00,,,0.00,227.0,meteohub,2013-04-13 12:27:00,
2013-04-13 08:37:00,48.7,46.0,29.88,NW,323,5.0,9.0,37,0.00,,,0.00,271.0,meteohub,2013-04-13 12:37:00,
2013-04-13 08:42:00,48.9,45.9,29.88,WNW,302,4.0,12.0,37,0.00,,,0.00,295.0,meteohub,2013-04-13 12:42:00,
2013-04-13 08:47:00,49.3,45.9,29.88,North,355,3.0,12.0,37,0.00,,,0.00,295.0,meteohub,2013-04-13 12:47:00,
2013-04-13 08:57:00,49.6,45.9,29.89,NW,304,9.0,10.0,37,0.00,,,0.00,320.0,meteohub,2013-04-13 12:57:00,
2013-04-13 09:02:00,49.8,46.0,29.88,WNW,290,5.0,12.0,37,0.00,,,0.00,357.0,meteohub,2013-04-13 13:02:00,
2013-04-13 09:07:00,50.2,46.0,29.89,WNW,289,3.0,12.0,37,0.00,,,0.00,380.0,meteohub,2013-04-13 13:07:00,
2013-04-13 09:12:00,50.7,46.0,29.89,West,280,5.0,12.0,37,0.00,,,0.00,385.0,meteohub,2013-04-13 13:12:00,
2013-04-13 09:17:00,50.9,46.0,29.89,WNW,286,4.0,8.0,37,0.00,,,0.00,420.0,meteohub,2013-04-13 13:17:00,
2013-04-13 09:27:00,51.6,45.5,29.89,NW,309,2.0,10.0,36,0.00,,,0.00,455.0,meteohub,2013-04-13 13:27:00,
2013-04-13 09:37:00,51.6,45.9,29.90,NNW,340,11.0,11.0,37,0.00,,,0.00,501.0,meteohub,2013-04-13 13:37:00,
2013-04-13 09:42:00,52.0,45.9,29.90,WNW,289,5.0,13.0,37,0.00,,,0.00,457.0,meteohub,2013-04-13 13:42:00,
2013-04-13 09:52:00,52.7,46.0,29.90,NW,319,1.0,13.0,37,0.00,,,0.00,454.0,meteohub,2013-04-13 13:52:00,
2013-04-13 09:58:00,53.1,46.0,29.90,WSW,258,4.0,8.0,37,0.00,,,0.00,557.0,meteohub,2013-04-13 13:58:00,
2013-04-13 10:07:00,53.1,46.2,29.90,NW,322,2.0,10.0,37,0.00,,,0.00,596.0,meteohub,2013-04-13 14:07:00,
2013-04-13 10:17:00,54.0,46.0,29.90,NW,312,3.0,7.0,37,0.00,,,0.00,517.0,meteohub,2013-04-13 14:17:00,
2013-04-13 10:27:00,54.1,45.9,29.90,NW,320,2.0,9.0,37,0.00,,,0.00,682.0,meteohub,2013-04-13 14:27:00,
2013-04-13 10:32:00,54.7,46.0,29.91,West,266,2.0,9.0,37,0.00,,,0.00,705.0,meteohub,2013-04-13 14:32:00,
2013-04-13 10:37:00,55.2,46.0,29.91,WNW,284,3.0,8.0,37,0.00,,,0.00,724.0,meteohub,2013-04-13 14:37:00,
2013-04-13 10:47:00,55.6,46.2,29.91,SW,236,5.0,9.0,37,0.00,,,0.00,717.0,meteohub,2013-04-13 14:47:00,
2013-04-13 10:55:00,55.6,46.0,29.91,WSW,251,4.0,9.0,37,0.00,,,0.00,689.0,meteohub,2013-04-13 14:55:00,
2013-04-13 11:05:00,56.7,45.9,29.92,West,265,1.0,9.0,37,0.00,,,0.00,751.0,meteohub,2013-04-13 15:05:00,
2013-04-13 11:12:00,56.8,46.0,29.92,WNW,290,3.0,7.0,37,0.00,,,0.00,698.0,meteohub,2013-04-13 15:12:00,
2013-04-13 11:17:00,57.0,46.0,29.92,SW,217,1.0,7.0,37,0.00,,,0.00,775.0,meteohub,2013-04-13 15:17:00,
2013-04-13 11:27:00,57.6,46.0,29.92,West,269,5.0,9.0,37,0.00,,,0.00,821.0,meteohub,2013-04-13 15:27:00,
2013-04-13 11:32:00,58.3,45.9,29.92,WSW,246,3.0,7.0,37,0.00,,,0.00,828.0,meteohub,2013-04-13 15:32:00,
2013-04-13 11:37:00,57.9,45.9,29.92,WSW,245,5.0,8.0,37,0.00,,,0.00,840.0,meteohub,2013-04-13 15:37:00,
2013-04-13 11:45:00,58.3,45.9,29.92,WNW,294,3.0,8.0,37,0.00,,,0.00,860.0,meteohub,2013-04-13 15:45:00,
2013-04-13 11:52:00,59.5,46.0,29.92,WNW,283,5.0,7.0,37,0.00,,,0.00,786.0,meteohub,2013-04-13 15:52:00,
2013-04-13 11:57:00,59.0,46.0,29.92,WSW,244,0.0,7.0,37,0.00,,,0.00,867.0,meteohub,2013-04-13 15:57:00,
2013-04-13 12:02:00,58.8,46.0,29.92,SSE,148,1.0,7.0,37,0.00,,,0.00,884.0,meteohub,2013-04-13 16:02:00,
2013-04-13 12:12:00,60.4,45.9,29.92,West,275,4.0,7.0,37,0.00,,,0.00,854.0,meteohub,2013-04-13 16:12:00,
2013-04-13 12:17:00,61.0,45.9,29.92,NW,308,2.0,7.0,37,0.00,,,0.00,860.0,meteohub,2013-04-13 16:17:00,
2013-04-13 12:27:00,61.0,46.0,29.91,WSW,247,0.0,6.0,37,0.00,,,0.00,821.0,meteohub,2013-04-13 16:27:00,
2013-04-13 12:32:00,61.3,45.9,29.91,WSW,240,0.0,6.0,37,0.00,,,0.00,896.0,meteohub,2013-04-13 16:32:00,
2013-04-13 12:42:00,62.4,45.9,29.91,West,272,1.0,9.0,37,0.00,,,0.00,881.0,meteohub,2013-04-13 16:42:00,
2013-04-13 12:47:00,61.9,45.9,29.91,SW,224,5.0,9.0,37,0.00,,,0.00,893.0,meteohub,2013-04-13 16:47:00,
2013-04-13 12:57:00,63.1,46.0,29.91,NW,322,0.0,8.0,37,0.00,,,0.00,970.0,meteohub,2013-04-13 16:57:00,
2013-04-13 13:02:00,63.9,46.0,29.91,North,0,4.0,8.0,37,0.00,,,0.00,851.0,meteohub,2013-04-13 17:02:00,
2013-04-13 13:15:00,65.5,46.0,29.91,NNW,340,3.0,8.0,37,0.00,,,0.00,970.0,meteohub,2013-04-13 17:15:00,
2013-04-13 13:25:00,64.9,45.9,29.90,NW,320,7.0,13.0,37,0.00,,,0.00,990.0,meteohub,2013-04-13 17:25:00,
2013-04-13 13:32:00,65.1,45.9,29.91,NW,321,6.0,13.0,37,0.00,,,0.00,1025.0,meteohub,2013-04-13 17:32:00,
2013-04-13 13:37:00,65.5,46.0,29.91,WNW,289,3.0,13.0,37,0.00,,,0.00,1046.0,meteohub,2013-04-13 17:37:00,
2013-04-13 13:42:00,65.7,46.0,29.91,NNE,17,7.0,17.0,37,0.00,,,0.00,991.0,meteohub,2013-04-13 17:42:00,
2013-04-13 13:52:00,65.8,46.0,29.90,WNW,295,11.0,12.0,37,0.00,,,0.00,877.0,meteohub,2013-04-13 17:52:00,
2013-04-13 14:00:00,65.8,45.3,29.90,WNW,298,10.0,15.0,36,0.00,,,0.00,860.0,meteohub,2013-04-13 18:00:00,
2013-04-13 14:10:00,66.7,45.9,29.90,West,279,6.0,15.0,37,0.00,,,0.00,729.0,meteohub,2013-04-13 18:10:00,
2013-04-13 14:17:00,64.9,45.9,29.90,WNW,284,13.0,15.0,37,0.00,,,0.00,765.0,meteohub,2013-04-13 18:17:00,
2013-04-13 14:22:00,64.9,46.0,29.90,West,263,9.0,15.0,37,0.00,,,0.00,833.0,meteohub,2013-04-13 18:22:00,
2013-04-13 14:27:00,65.7,46.0,29.90,NNW,333,8.0,15.0,37,0.00,,,0.00,1000.0,meteohub,2013-04-13 18:27:00,
2013-04-13 14:32:00,66.6,45.3,29.90,WNW,302,8.0,14.0,36,0.00,,,0.00,1027.0,meteohub,2013-04-13 18:32:00,
2013-04-13 14:37:00,66.6,45.3,29.90,WNW,291,13.0,14.0,36,0.00,,,0.00,886.0,meteohub,2013-04-13 18:37:00,
2013-04-13 14:42:00,66.0,45.3,29.90,NW,326,4.0,16.0,36,0.00,,,0.00,860.0,meteohub,2013-04-13 18:42:00,
2013-04-13 14:47:00,66.0,45.3,29.89,West,276,7.0,18.0,36,0.00,,,0.00,1007.0,meteohub,2013-04-13 18:47:00,
2013-04-13 14:52:00,66.0,45.3,29.89,North,355,6.0,18.0,36,0.00,,,0.00,1027.0,meteohub,2013-04-13 18:52:00,
2013-04-13 14:57:00,66.4,45.1,29.89,WSW,252,8.0,18.0,36,0.00,,,0.00,928.0,meteohub,2013-04-13 18:57:00,
2013-04-13 15:02:00,66.7,45.1,29.88,West,273,5.0,17.0,36,0.00,,,0.00,895.0,meteohub,2013-04-13 19:02:00,
2013-04-13 15:07:00,66.7,45.1,29.89,WNW,284,6.0,15.0,36,0.00,,,0.00,939.0,meteohub,2013-04-13 19:07:00,
2013-04-13 15:12:00,67.1,45.1,29.89,NNW,327,8.0,15.0,36,0.00,,,0.00,916.0,meteohub,2013-04-13 19:12:00,
2013-04-13 15:17:00,66.6,45.1,29.88,WNW,300,4.0,17.0,36,0.00,,,0.00,844.0,meteohub,2013-04-13 19:17:00,
2013-04-13 15:27:00,67.5,45.3,29.88,NNE,18,7.0,17.0,36,0.00,,,0.00,863.0,meteohub,2013-04-13 19:27:00,
2013-04-13 15:37:00,67.3,45.1,29.88,WNW,284,15.0,15.0,36,0.00,,,0.00,846.0,meteohub,2013-04-13 19:37:00,
2013-04-13 15:42:00,67.3,45.0,29.88,WNW,300,8.0,19.0,36,0.00,,,0.00,840.0,meteohub,2013-04-13 19:42:00,
2013-04-13 15:47:00,66.9,45.1,29.88,NW,317,7.0,19.0,36,0.00,,,0.00,828.0,meteohub,2013-04-13 19:47:00,
2013-04-13 15:57:00,66.7,45.1,29.88,NE,42,2.0,15.0,36,0.00,,,0.00,803.0,meteohub,2013-04-13 19:57:00,
2013-04-13 16:02:00,67.3,45.1,29.88,West,271,7.0,14.0,36,0.00,,,0.00,791.0,meteohub,2013-04-13 20:02:00,
2013-04-13 16:07:00,67.3,45.1,29.88,WNW,300,11.0,16.0,36,0.00,,,0.00,779.0,meteohub,2013-04-13 20:07:00,
2013-04-13 16:12:00,67.5,45.1,29.88,WSW,243,1.0,16.0,36,0.00,,,0.00,766.0,meteohub,2013-04-13 20:12:00,
2013-04-13 16:22:00,67.5,45.0,29.87,West,267,10.0,14.0,36,0.00,,,0.00,738.0,meteohub,2013-04-13 20:22:00,
2013-04-13 16:27:00,67.1,45.0,29.88,NNW,346,6.0,16.0,36,0.00,,,0.00,726.0,meteohub,2013-04-13 20:27:00,
2013-04-13 16:32:00,67.1,45.0,29.87,WSW,247,9.0,16.0,36,0.00,,,0.00,712.0,meteohub,2013-04-13 20:32:00,
2013-04-13 16:42:00,67.6,45.1,29.87,NNW,329,9.0,18.0,36,0.00,,,0.00,686.0,meteohub,2013-04-13 20:42:00,
2013-04-13 16:47:00,67.1,45.1,29.87,WSW,250,5.0,15.0,36,0.00,,,0.00,677.0,meteohub,2013-04-13 20:47:00,
2013-04-13 16:52:00,68.2,45.1,29.87,NW,314,6.0,15.0,36,0.00,,,0.00,635.0,meteohub,2013-04-13 20:52:00,
2013-04-13 16:57:00,67.8,45.1,29.87,NNW,335,2.0,14.0,36,0.00,,,0.00,661.0,meteohub,2013-04-13 20:57:00,
2013-04-13 17:02:00,67.8,45.1,29.87,West,279,8.0,11.0,36,0.00,,,0.00,650.0,meteohub,2013-04-13 21:02:00,
2013-04-13 17:07:00,68.0,44.4,29.87,NW,313,4.0,14.0,35,0.00,,,0.00,621.0,meteohub,2013-04-13 21:07:00,
2013-04-13 17:12:00,68.2,45.0,29.87,West,267,5.0,14.0,36,0.00,,,0.00,584.0,meteohub,2013-04-13 21:12:00,
2013-04-13 17:17:00,68.4,45.0,29.87,West,279,5.0,14.0,36,0.00,,,0.00,566.0,meteohub,2013-04-13 21:17:00,
2013-04-13 17:22:00,68.2,45.0,29.87,West,260,4.0,14.0,36,0.00,,,0.00,548.0,meteohub,2013-04-13 21:22:00,
2013-04-13 17:32:00,67.5,45.0,29.88,West,259,7.0,16.0,36,0.00,,,0.00,513.0,meteohub,2013-04-13 21:32:00,
2013-04-13 17:37:00,67.6,45.1,29.88,SW,225,7.0,16.0,36,0.00,,,0.00,494.0,meteohub,2013-04-13 21:37:00,
2013-04-13 17:47:00,67.8,45.1,29.88,WSW,242,9.0,13.0,36,0.00,,,0.00,457.0,meteohub,2013-04-13 21:47:00,
2013-04-13 17:52:00,67.5,45.1,29.88,SW,226,4.0,15.0,36,0.00,,,0.00,441.0,meteohub,2013-04-13 21:52:00,
2013-04-13 17:57:00,67.6,45.1,29.88,NW,311,9.0,15.0,36,0.00,,,0.00,422.0,meteohub,2013-04-13 21:57:00,
2013-04-13 18:02:00,67.5,45.1,29.88,WNW,297,11.0,15.0,36,0.00,,,0.00,404.0,meteohub,2013-04-13 22:02:00,
2013-04-13 18:12:00,66.6,45.3,29.88,WNW,303,8.0,15.0,36,0.00,,,0.00,366.0,meteohub,2013-04-13 22:12:00,
2013-04-13 18:22:00,66.2,44.6,29.88,WSW,250,4.0,15.0,35,0.00,,,0.00,329.0,meteohub,2013-04-13 22:22:00,
2013-04-13 18:27:00,66.2,44.6,29.89,NNW,337,4.0,14.0,35,0.00,,,0.00,311.0,meteohub,2013-04-13 22:27:00,
2013-04-13 18:32:00,66.0,44.6,29.89,West,279,4.0,11.0,35,0.00,,,0.00,295.0,meteohub,2013-04-13 22:32:00,
2013-04-13 18:37:00,65.5,44.4,29.89,NNW,347,6.0,13.0,35,0.00,,,0.00,274.0,meteohub,2013-04-13 22:37:00,
2013-04-13 18:47:00,65.5,45.0,29.89,WSW,258,4.0,13.0,36,0.00,,,0.00,232.0,meteohub,2013-04-13 22:47:00,
2013-04-13 18:52:00,65.1,45.0,29.89,WSW,251,6.0,11.0,36,0.00,,,0.00,185.0,meteohub,2013-04-13 22:52:00,
2013-04-13 18:57:00,64.8,45.1,29.89,West,263,7.0,13.0,36,0.00,,,0.00,188.0,meteohub,2013-04-13 22:57:00,
2013-04-13 19:07:00,64.4,44.4,29.90,WNW,295,3.0,11.0,35,0.00,,,0.00,146.0,meteohub,2013-04-13 23:07:00,
2013-04-13 19:12:00,64.2,44.4,29.90,West,274,3.0,9.0,35,0.00,,,0.00,123.0,meteohub,2013-04-13 23:12:00,
2013-04-13 19:17:00,64.0,44.4,29.90,South,187,2.0,8.0,35,0.00,,,0.00,100.0,meteohub,2013-04-13 23:17:00,
2013-04-13 19:22:00,63.9,44.4,29.90,WNW,291,2.0,8.0,35,0.00,,,0.00,67.0,meteohub,2013-04-13 23:22:00,
2013-04-13 19:27:00,63.9,44.2,29.90,South,190,1.0,6.0,35,0.00,,,0.00,63.0,meteohub,2013-04-13 23:27:00,
2013-04-13 19:37:00,63.1,45.0,29.91,WNW,286,0.0,5.0,36,0.00,,,0.00,37.0,meteohub,2013-04-13 23:37:00,
2013-04-13 19:42:00,63.0,45.0,29.91,West,263,1.0,5.0,36,0.00,,,0.00,19.0,meteohub,2013-04-13 23:42:00,
2013-04-13 19:47:00,62.2,45.0,29.91,West,263,2.0,5.0,36,0.00,,,0.00,16.0,meteohub,2013-04-13 23:47:00,
2013-04-13 19:52:00,61.7,45.0,29.91,WSW,257,0.0,4.0,36,0.00,,,0.00,14.0,meteohub,2013-04-13 23:52:00,
2013-04-13 19:57:00,61.0,45.0,29.91,WSW,257,0.0,3.0,36,0.00,,,0.00,11.0,meteohub,2013-04-13 23:57:00,
2013-04-13 20:02:00,60.4,45.0,29.92,WSW,257,0.0,3.0,36,0.00,,,0.00,5.0,meteohub,2013-04-14 00:02:00,
2013-04-13 20:07:00,59.9,45.1,29.92,WSW,257,0.0,1.0,36,0.00,,,0.00,0.0,meteohub,2013-04-14 00:07:00,
2013-04-13 20:12:00,59.4,45.1,29.92,WSW,257,0.0,1.0,36,0.00,,,0.00,0.0,meteohub,2013-04-14 00:12:00,
2013-04-13 20:17:00,58.8,45.1,29.92,WSW,257,0.0,1.0,36,0.00,,,0.00,0.0,meteohub,2013-04-14 00:17:00,
2013-04-13 20:22:00,58.6,45.0,29.92,WSW,257,0.0,2.0,36,0.00,,,0.00,0.0,meteohub,2013-04-14 00:22:00,
2013-04-13 20:27:00,58.3,45.0,29.92,WSW,258,0.0,2.0,36,0.00,,,0.00,0.0,meteohub,2013-04-14 00:27:00,
2013-04-13 20:37:00,58.1,45.0,29.92,WNW,294,1.0,4.0,36,0.00,,,0.00,0.0,meteohub,2013-04-14 00:37:00,
2013-04-13 20:42:00,57.9,45.0,29.93,WNW,294,0.0,4.0,36,0.00,,,0.00,0.0,meteohub,2013-04-14 00:42:00,
2013-04-13 20:47:00,57.7,45.0,29.93,WNW,294,0.0,3.0,36,0.00,,,0.00,0.0,meteohub,2013-04-14 00:47:00,
2013-04-13 20:57:00,57.2,45.0,29.94,West,274,0.0,2.0,36,0.00,,,0.00,0.0,meteohub,2013-04-14 00:57:00,
2013-04-13 21:02:00,56.8,45.0,29.94,West,274,0.0,2.0,36,0.00,,,0.00,0.0,meteohub,2013-04-14 01:02:00,
2013-04-13 21:07:00,56.7,45.0,29.94,NNW,333,0.0,3.0,36,0.00,,,0.00,0.0,meteohub,2013-04-14 01:07:00,
2013-04-13 21:17:00,56.1,45.0,29.94,NNW,333,0.0,3.0,36,0.00,,,0.00,0.0,meteohub,2013-04-14 01:17:00,
2013-04-13 21:22:00,55.9,45.0,29.95,North,0,0.0,2.0,36,0.00,,,0.00,0.0,meteohub,2013-04-14 01:22:00,
2013-04-13 21:27:00,55.8,45.1,29.95,North,0,1.0,2.0,36,0.00,,,0.00,0.0,meteohub,2013-04-14 01:27:00,
2013-04-13 21:37:00,55.4,45.0,29.96,ENE,58,0.0,3.0,36,0.00,,,0.00,0.0,meteohub,2013-04-14 01:37:00,
2013-04-13 21:42:00,55.0,45.0,29.96,ENE,58,0.0,3.0,36,0.00,,,0.00,0.0,meteohub,2013-04-14 01:42:00,
2013-04-13 21:52:00,54.7,45.0,29.97,ENE,63,0.0,2.0,36,0.00,,,0.00,0.0,meteohub,2013-04-14 01:52:00,
2013-04-13 22:02:00,54.1,45.0,29.97,ENE,63,1.0,2.0,36,0.00,,,0.00,0.0,meteohub,2013-04-14 02:02:00,
2013-04-13 22:07:00,53.8,45.0,29.97,ENE,63,0.0,1.0,36,0.00,,,0.00,0.0,meteohub,2013-04-14 02:07:00,
2013-04-13 22:12:00,53.4,45.0,29.97,ENE,63,0.0,2.0,36,0.00,,,0.00,0.0,meteohub,2013-04-14 02:12:00,
2013-04-13 22:22:00,52.9,45.0,29.97,SE,144,0.0,2.0,36,0.00,,,0.00,0.0,meteohub,2013-04-14 02:22:00,
2013-04-13 22:32:00,52.2,45.0,29.98,East,101,0.0,2.0,36,0.00,,,0.00,0.0,meteohub,2013-04-14 02:32:00,
2013-04-13 22:37:00,52.0,45.0,29.98,SE,128,0.0,2.0,36,0.00,,,0.00,0.0,meteohub,2013-04-14 02:37:00,
2013-04-13 22:42:00,51.6,45.0,29.98,ESE,109,0.0,3.0,36,0.00,,,0.00,0.0,meteohub,2013-04-14 02:42:00,
2013-04-13 22:52:00,51.3,45.0,29.97,ENE,77,2.0,3.0,36,0.00,,,0.00,0.0,meteohub,2013-04-14 02:52:00,
2013-04-13 22:57:00,51.1,45.0,29.97,ESE,117,0.0,3.0,36,0.00,,,0.00,0.0,meteohub,2013-04-14 02:57:00,
2013-04-13 23:02:00,50.9,45.0,29.97,ESE,117,0.0,3.0,36,0.00,,,0.00,0.0,meteohub,2013-04-14 03:02:00,
2013-04-13 23:07:00,50.7,45.0,29.97,ESE,117,0.0,3.0,36,0.00,,,0.00,0.0,meteohub,2013-04-14 03:07:00,
2013-04-13 23:12:00,50.5,45.0,29.97,ESE,117,0.0,2.0,36,0.00,,,0.00,0.0,meteohub,2013-04-14 03:12:00,
2013-04-13 23:22:00,50.2,45.0,29.97,ESE,117,0.0,1.0,36,0.00,,,0.00,0.0,meteohub,2013-04-14 03:22:00,
2013-04-13 23:27:00,49.8,45.0,29.98,ESE,117,0.0,1.0,36,0.00,,,0.00,0.0,meteohub,2013-04-14 03:27:00,
2013-04-13 23:37:00,49.3,45.0,29.97,ESE,117,0.0,1.0,36,0.00,,,0.00,0.0,meteohub,2013-04-14 03:37:00,
2013-04-13 23:42:00,48.7,45.0,29.97,ESE,117,0.0,1.0,36,0.00,,,0.00,0.0,meteohub,2013-04-14 03:42:00,
2013-04-13 23:47:00,48.4,45.0,29.98,ESE,117,0.0,1.0,36,0.00,,,0.00,0.0,meteohub,2013-04-14 03:47:00,
2013-04-13 23:57:00,47.8,45.0,29.98,ESE,117,0.0,2.0,36,0.00,,,0.00,0.0,meteohub,2013-04-14 03:57:00,